createdAt,value
2023-03-06T00:04:38.375Z,81.66
2023-03-06T00:09:38.316Z,81.24
2023-03-06T00:14:38.226Z,80.73
2023-03-06T00:19:38.177Z,80.73
2023-03-06T00:24:38.134Z,80.21
2023-03-06T00:29:38.063Z,80.62
2023-03-06T00:34:37.978Z,80.14
2023-03-06T00:39:37.901Z,80.55
2023-03-06T00:44:37.838Z,80.66
2023-03-06T00:49:37.795Z,80.45
2023-03-06T00:54:37.791Z,80.55
2023-03-06T00:59:37.665Z,80.55
2023-03-06T01:04:37.595Z,80.87
2023-03-06T01:09:37.518Z,80.55
2023-03-06T01:14:37.475Z,80.55
2023-03-06T01:19:37.430Z,80.87
2023-03-06T01:24:37.316Z,80.76
2023-03-06T01:29:37.256Z,80.87
2023-03-06T01:34:37.193Z,81.28
2023-03-06T01:39:37.146Z,81.42
2023-03-06T01:44:37.061Z,81.73
2023-03-06T01:49:37.035Z,81.52
2023-03-06T01:54:36.971Z,81.52
2023-03-06T01:59:36.888Z,82.15
2023-03-06T02:04:36.821Z,82.39
2023-03-06T02:09:36.773Z,81.84
2023-03-06T02:14:36.720Z,81.94
2023-03-06T02:19:36.639Z,82.67
2023-03-06T02:24:36.584Z,81.32
2023-03-06T02:29:36.517Z,81.11
2023-03-06T02:34:36.477Z,80.97
2023-03-06T02:39:36.402Z,81.38
2023-03-06T02:44:36.340Z,80.07
2023-03-06T02:49:36.259Z,80.66
2023-03-06T02:54:36.310Z,81.28
2023-03-06T02:59:36.636Z,80.04
2023-03-06T03:04:36.096Z,79.93
2023-03-06T03:09:35.991Z,80.69
2023-03-06T03:14:36.007Z,80.83
2023-03-06T03:19:35.870Z,81.15
2023-03-06T03:24:35.839Z,82.26
2023-03-06T03:29:35.746Z,82.61
2023-03-06T03:34:35.742Z,83.13
2023-03-06T03:39:35.618Z,84.17
2023-03-06T03:44:35.583Z,84.52
2023-03-06T03:49:35.519Z,84.31
2023-03-06T03:54:35.464Z,84.98
2023-03-06T03:59:35.341Z,85.29
2023-03-06T04:04:35.328Z,85.50
2023-03-06T04:09:35.266Z,84.87
2023-03-06T04:14:35.209Z,85.02
2023-03-06T04:19:35.141Z,85.43
2023-03-06T04:24:35.009Z,85.22
2023-03-06T04:29:34.985Z,85.22
2023-03-06T04:34:34.962Z,86.06
2023-03-06T04:39:34.836Z,85.85
2023-03-06T04:44:34.793Z,84.60
2023-03-06T04:49:34.749Z,84.66
2023-03-06T04:54:34.650Z,83.83
2023-03-06T04:59:34.585Z,83.66
2023-03-06T05:04:34.509Z,83.25
2023-03-06T05:09:34.463Z,83.14
2023-03-06T05:14:34.387Z,83.14
2023-03-06T05:19:34.339Z,83.25
2023-03-06T05:24:34.290Z,83.04
2023-03-06T05:29:34.248Z,83.28
2023-03-06T05:34:34.130Z,83.49
2023-03-06T05:39:34.098Z,83.28
2023-03-06T05:44:33.982Z,83.39
2023-03-06T05:49:34.024Z,83.07
2023-03-06T05:54:33.894Z,82.97
2023-03-06T05:59:33.819Z,82.55
2023-03-06T06:04:33.749Z,82.10
2023-03-06T06:09:33.718Z,81.99
2023-03-06T06:14:33.630Z,81.47
2023-03-06T06:19:33.624Z,81.12
2023-03-06T06:24:33.540Z,80.29
2023-03-06T06:29:33.440Z,79.94
2023-03-06T06:34:33.345Z,80.11
2023-03-06T06:39:33.322Z,79.76
2023-03-06T06:44:33.247Z,78.79
2023-03-06T06:49:33.159Z,77.20
2023-03-06T06:54:33.119Z,76.43
2023-03-06T06:59:33.073Z,75.15
2023-03-06T07:04:32.998Z,75.15
2023-03-06T07:09:32.980Z,74.95
2023-03-06T07:14:32.877Z,74.08
2023-03-06T07:19:32.788Z,74.08
2023-03-06T07:24:32.771Z,73.74
2023-03-06T07:29:32.694Z,72.77
2023-03-06T07:34:32.592Z,72.63
2023-03-06T07:39:32.563Z,71.28
2023-03-06T07:44:32.510Z,71.77
2023-03-06T07:49:32.417Z,70.47
2023-03-06T07:54:32.339Z,74.02
2023-03-06T07:59:32.291Z,68.74
2023-03-06T08:04:32.199Z,69.43
2023-03-06T08:09:32.173Z,66.96
2023-03-06T08:14:32.092Z,66.89
2023-03-06T08:19:32.052Z,66.58
2023-03-06T08:24:31.938Z,65.31
2023-03-06T08:29:32.414Z,64.98
2023-03-06T08:34:31.839Z,64.15
2023-03-06T08:39:31.738Z,64.18
2023-03-06T08:44:31.752Z,64.62
2023-03-06T08:49:31.620Z,66.20
2023-03-06T08:54:31.580Z,66.72
2023-03-06T08:59:31.533Z,67.06
2023-03-06T09:04:31.438Z,67.40
2023-03-06T09:09:31.351Z,67.82
2023-03-06T09:14:31.278Z,68.57
2023-03-06T09:19:31.253Z,68.64
2023-03-06T09:24:31.231Z,68.64
2023-03-06T09:29:31.144Z,68.12
2023-03-06T09:34:31.100Z,69.85
2023-03-06T09:39:30.959Z,68.99
2023-03-06T09:44:31.021Z,66.31
2023-03-06T09:49:30.857Z,63.47
2023-03-06T09:54:34.778Z,62.79
2023-03-06T09:59:30.717Z,62.33
2023-03-06T10:04:30.661Z,62.12
2023-03-06T10:09:30.543Z,61.30
2023-03-06T10:14:30.477Z,61.63
2023-03-06T10:19:30.507Z,62.59
2023-03-06T10:24:30.396Z,63.96
2023-03-06T10:29:30.321Z,64.17
2023-03-06T10:34:30.240Z,65.12
2023-03-06T10:39:30.174Z,66.28
2023-03-06T10:44:30.105Z,68.17
2023-03-06T10:49:30.139Z,68.11
2023-03-06T10:54:30.013Z,66.25
2023-03-06T10:59:29.897Z,67.21
2023-03-06T11:04:29.898Z,68.21
2023-03-06T11:09:29.765Z,70.54
2023-03-06T11:14:29.793Z,72.26
2023-03-06T11:19:29.704Z,73.50
2023-03-06T11:24:29.575Z,75.40
2023-03-06T11:29:29.817Z,77.98
2023-03-06T11:34:29.459Z,79.12
2023-03-06T11:39:29.402Z,80.95
2023-03-06T11:44:29.314Z,82.75
2023-03-06T11:49:29.279Z,83.47
2023-03-06T11:54:29.525Z,83.85
2023-03-06T11:59:29.136Z,84.51
2023-03-06T12:04:29.170Z,83.46
2023-03-06T12:09:29.046Z,81.21
2023-03-06T12:14:28.959Z,78.94
2023-03-06T12:19:28.903Z,77.04
2023-03-06T12:24:28.820Z,75.05
2023-03-06T12:29:28.753Z,75.12
2023-03-06T12:34:28.678Z,75.49
2023-03-06T12:39:28.652Z,76.77
2023-03-06T12:44:28.534Z,77.94
2023-03-06T12:49:32.587Z,75.29
2023-03-06T12:54:28.445Z,72.47
2023-03-06T12:59:28.352Z,71.85
2023-03-06T13:04:28.324Z,71.23
2023-03-06T13:09:28.283Z,71.37
2023-03-06T13:14:28.162Z,74.60
2023-03-06T13:19:28.194Z,77.53
2023-03-06T13:24:28.044Z,80.04
2023-03-06T13:29:27.964Z,82.00
2023-03-06T13:34:27.892Z,82.10
2023-03-06T13:39:27.867Z,80.35
2023-03-06T13:44:27.756Z,80.73
2023-03-06T13:49:27.721Z,79.59
2023-03-06T13:54:28.594Z,79.66
2023-03-06T13:59:27.657Z,80.07
2023-03-06T14:04:27.499Z,80.34
2023-03-06T14:09:27.446Z,79.58
2023-03-06T14:14:27.356Z,78.97
2023-03-06T14:19:27.328Z,77.83
2023-03-06T14:24:27.225Z,77.25
2023-03-06T14:29:27.162Z,77.22
2023-03-06T14:34:27.387Z,76.12
2023-03-06T14:39:27.068Z,76.73
2023-03-06T14:44:26.967Z,78.08
2023-03-06T14:49:26.960Z,78.66
2023-03-06T14:54:26.842Z,77.39
2023-03-06T14:59:26.842Z,76.77
2023-03-06T15:04:26.786Z,76.56
2023-03-06T15:09:26.666Z,74.95
2023-03-06T15:14:26.603Z,75.87
2023-03-06T15:19:26.547Z,76.12
2023-03-06T15:24:26.479Z,76.73
2023-03-06T15:29:26.442Z,78.28
2023-03-06T15:34:26.364Z,76.73
2023-03-06T15:39:26.522Z,76.64
2023-03-06T15:44:26.199Z,77.04
2023-03-06T15:49:26.160Z,76.56
2023-03-06T15:54:26.184Z,76.77
2023-03-06T15:59:26.858Z,77.74
2023-03-06T16:04:25.965Z,80.99
2023-03-06T16:09:25.862Z,85.56
2023-03-06T16:14:25.848Z,88.48
2023-03-06T16:19:27.428Z,90.60
2023-03-06T16:24:25.663Z,92.20
2023-03-06T16:29:25.608Z,93.03
2023-03-06T16:34:25.526Z,94.32
2023-03-06T16:39:25.525Z,95.30
2023-03-06T16:44:25.552Z,95.67
2023-03-06T16:49:25.504Z,95.99
2023-03-06T16:54:25.298Z,95.84
2023-03-06T16:59:25.263Z,95.32
2023-03-06T17:04:25.212Z,94.07
2023-03-06T17:09:25.094Z,94.18
2023-03-06T17:14:25.075Z,94.38
2023-03-06T17:19:24.978Z,94.74
2023-03-06T17:24:24.918Z,95.26
2023-03-06T17:29:24.959Z,96.03
2023-03-06T17:34:24.801Z,96.03
2023-03-06T17:39:24.757Z,96.03
2023-03-06T17:44:24.626Z,96.14
2023-03-06T17:49:24.590Z,96.20
2023-03-06T17:54:24.505Z,96.09
2023-03-06T17:59:24.458Z,96.04
2023-03-06T18:04:24.395Z,95.63
2023-03-06T18:09:24.354Z,95.32
2023-03-06T18:14:24.237Z,95.53
2023-03-06T18:19:24.194Z,95.63
2023-03-06T18:24:24.185Z,97.20
2023-03-06T18:29:24.069Z,95.69
2023-03-06T18:34:24.250Z,95.86
2023-03-06T18:39:24.957Z,91.28
2023-03-06T18:44:23.901Z,90.25
2023-03-06T18:49:24.165Z,90.25
2023-03-06T18:54:23.753Z,90.14
2023-03-06T18:59:23.693Z,90.56
2023-03-06T19:04:23.670Z,91.18
2023-03-06T19:09:23.552Z,90.93
2023-03-06T19:14:23.533Z,90.56
2023-03-06T19:19:23.524Z,90.77
2023-03-06T19:24:23.405Z,91.33
2023-03-06T19:29:23.309Z,92.26
2023-03-06T19:34:23.290Z,92.05
2023-03-06T19:39:23.292Z,92.47
2023-03-06T19:44:23.177Z,92.68
2023-03-06T19:49:23.194Z,93.20
2023-03-06T19:54:23.125Z,95.13
2023-03-06T19:59:22.945Z,93.93
2023-03-06T20:04:22.935Z,93.10
2023-03-06T20:09:22.941Z,93.45
2023-03-06T20:14:22.751Z,94.12
2023-03-06T20:19:22.849Z,95.15
2023-03-06T20:24:22.824Z,95.11
2023-03-06T20:29:22.779Z,94.18
2023-03-06T20:34:22.481Z,92.93
2023-03-06T20:39:22.474Z,92.14
2023-03-06T20:44:22.373Z,93.33
2023-03-06T20:49:22.311Z,95.14
2023-03-06T20:54:22.315Z,95.45
2023-03-06T20:59:22.186Z,95.45
2023-03-06T21:04:22.094Z,95.20
2023-03-06T21:09:22.093Z,95.40
2023-03-06T21:14:22.052Z,95.05
2023-03-06T21:19:21.931Z,93.55
2023-03-06T21:24:21.992Z,93.03
2023-03-06T21:29:21.771Z,92.41
2023-03-06T21:34:21.712Z,92.41
2023-03-06T21:39:21.660Z,91.53
2023-03-06T21:44:21.570Z,91.12
2023-03-06T21:49:21.639Z,91.43
2023-03-06T21:54:21.485Z,91.47
2023-03-06T21:59:21.404Z,91.58
2023-03-06T22:04:21.402Z,91.27
2023-03-06T22:09:21.357Z,90.83
2023-03-06T22:14:21.256Z,93.68
2023-03-06T22:19:21.170Z,93.83
2023-03-06T22:24:21.913Z,94.60
2023-03-06T22:29:21.082Z,94.81
2023-03-06T22:34:20.986Z,94.96
2023-03-06T22:39:20.909Z,96.15
2023-03-06T22:44:20.858Z,96.56
2023-03-06T22:49:20.801Z,96.67
2023-03-06T22:54:20.746Z,96.46
2023-03-06T22:59:20.688Z,97.40
2023-03-06T23:04:20.682Z,97.40
2023-03-06T23:09:20.522Z,97.30
2023-03-06T23:14:20.889Z,97.25
2023-03-06T23:19:20.363Z,95.85
2023-03-06T23:24:20.389Z,94.08
2023-03-06T23:29:20.300Z,92.54
2023-03-06T23:34:20.170Z,91.66
2023-03-06T23:39:20.204Z,90.41
2023-03-06T23:44:20.155Z,89.33
2023-03-06T23:49:21.872Z,88.60
2023-03-06T23:54:19.964Z,88.60
2023-03-06T23:59:19.837Z,88.04
